sensor_id;sensor_type;location;lat;lon;timestamp;P1;durP1;ratioP1;P2;durP2;ratioP2
61407;SDS011;47274;43.054;25.146;2023-07-20T00:01:25;18.38;;;3.95;;
61407;SDS011;47274;43.054;25.146;2023-07-20T00:03:51;17.98;;;4.20;;
61407;SDS011;47274;43.054;25.146;2023-07-20T00:06:23;18.23;;;4.10;;
61407;SDS011;47274;43.054;25.146;2023-07-20T00:09:07;14.95;;;3.58;;
61407;SDS011;47274;43.054;25.146;2023-07-20T00:11:35;8.38;;;3.10;;
61407;SDS011;47274;43.054;25.146;2023-07-20T00:14:09;14.63;;;3.40;;
61407;SDS011;47274;43.054;25.146;2023-07-20T00:16:55;13.05;;;3.35;;
61407;SDS011;47274;43.054;25.146;2023-07-20T00:19:22;17.13;;;3.30;;
61407;SDS011;47274;43.054;25.146;2023-07-20T00:21:53;12.43;;;3.00;;
61407;SDS011;47274;43.054;25.146;2023-07-20T00:24:25;14.35;;;3.20;;
61407;SDS011;47274;43.054;25.146;2023-07-20T00:26:51;11.93;;;3.28;;
61407;SDS011;47274;43.054;25.146;2023-07-20T00:29:16;12.80;;;3.20;;
61407;SDS011;47274;43.054;25.146;2023-07-20T00:31:43;11.23;;;2.90;;
61407;SDS011;47274;43.054;25.146;2023-07-20T00:34:09;9.73;;;2.97;;
61407;SDS011;47274;43.054;25.146;2023-07-20T00:36:47;11.18;;;2.80;;
61407;SDS011;47274;43.054;25.146;2023-07-20T00:39:15;12.00;;;2.83;;
61407;SDS011;47274;43.054;25.146;2023-07-20T00:41:41;15.27;;;3.50;;
61407;SDS011;47274;43.054;25.146;2023-07-20T00:44:07;17.85;;;3.70;;
61407;SDS011;47274;43.054;25.146;2023-07-20T00:46:33;16.40;;;3.50;;
61407;SDS011;47274;43.054;25.146;2023-07-20T00:48:59;17.08;;;3.15;;
61407;SDS011;47274;43.054;25.146;2023-07-20T00:51:26;15.70;;;3.45;;
61407;SDS011;47274;43.054;25.146;2023-07-20T00:53:55;15.35;;;3.10;;
61407;SDS011;47274;43.054;25.146;2023-07-20T00:56:22;9.55;;;3.08;;
61407;SDS011;47274;43.054;25.146;2023-07-20T00:58:48;15.65;;;3.08;;
61407;SDS011;47274;43.054;25.146;2023-07-20T01:01:16;11.07;;;3.17;;
61407;SDS011;47274;43.054;25.146;2023-07-20T01:04:08;9.65;;;2.92;;
61407;SDS011;47274;43.054;25.146;2023-07-20T01:06:51;11.20;;;3.00;;
61407;SDS011;47274;43.054;25.146;2023-07-20T01:12:52;11.00;;;2.88;;
61407;SDS011;47274;43.054;25.146;2023-07-20T01:15:23;12.98;;;3.20;;
61407;SDS011;47274;43.054;25.146;2023-07-20T01:18:02;11.70;;;3.38;;
61407;SDS011;47274;43.054;25.146;2023-07-20T01:20:41;11.05;;;3.25;;
61407;SDS011;47274;43.054;25.146;2023-07-20T01:23:18;12.98;;;3.30;;
61407;SDS011;47274;43.054;25.146;2023-07-20T01:32:17;14.27;;;3.88;;
61407;SDS011;47274;43.054;25.146;2023-07-20T01:34:47;15.48;;;4.00;;
61407;SDS011;47274;43.054;25.146;2023-07-20T01:37:14;14.60;;;4.07;;
61407;SDS011;47274;43.054;25.146;2023-07-20T01:39:42;15.88;;;4.40;;
61407;SDS011;47274;43.054;25.146;2023-07-20T01:42:08;13.07;;;3.80;;
61407;SDS011;47274;43.054;25.146;2023-07-20T01:44:34;13.68;;;3.75;;
61407;SDS011;47274;43.054;25.146;2023-07-20T01:47:10;17.05;;;3.78;;
61407;SDS011;47274;43.054;25.146;2023-07-20T01:49:38;13.40;;;3.55;;
61407;SDS011;47274;43.054;25.146;2023-07-20T01:52:05;9.43;;;3.40;;
61407;SDS011;47274;43.054;25.146;2023-07-20T01:54:34;16.50;;;4.32;;
61407;SDS011;47274;43.054;25.146;2023-07-20T01:57:00;15.45;;;3.85;;
61407;SDS011;47274;43.054;25.146;2023-07-20T01:59:32;14.25;;;4.20;;
61407;SDS011;47274;43.054;25.146;2023-07-20T02:02:08;10.27;;;3.77;;
61407;SDS011;47274;43.054;25.146;2023-07-20T02:04:34;14.35;;;3.83;;
61407;SDS011;47274;43.054;25.146;2023-07-20T02:07:00;17.10;;;4.00;;
61407;SDS011;47274;43.054;25.146;2023-07-20T02:09:26;13.30;;;3.80;;
61407;SDS011;47274;43.054;25.146;2023-07-20T02:11:52;12.30;;;3.95;;
61407;SDS011;47274;43.054;25.146;2023-07-20T02:14:19;11.70;;;3.75;;
61407;SDS011;47274;43.054;25.146;2023-07-20T02:17:07;12.38;;;4.53;;
61407;SDS011;47274;43.054;25.146;2023-07-20T02:19:40;16.02;;;4.35;;
61407;SDS011;47274;43.054;25.146;2023-07-20T02:22:06;14.88;;;4.13;;
61407;SDS011;47274;43.054;25.146;2023-07-20T02:24:32;10.98;;;3.92;;
61407;SDS011;47274;43.054;25.146;2023-07-20T02:26:59;13.55;;;4.07;;
61407;SDS011;47274;43.054;25.146;2023-07-20T02:29:25;8.32;;;3.75;;
61407;SDS011;47274;43.054;25.146;2023-07-20T02:31:51;15.65;;;4.40;;
61407;SDS011;47274;43.054;25.146;2023-07-20T02:34:16;14.43;;;4.10;;
61407;SDS011;47274;43.054;25.146;2023-07-20T02:36:42;13.13;;;3.97;;
61407;SDS011;47274;43.054;25.146;2023-07-20T02:39:08;12.25;;;4.88;;
61407;SDS011;47274;43.054;25.146;2023-07-20T02:41:37;15.07;;;4.10;;
61407;SDS011;47274;43.054;25.146;2023-07-20T02:44:02;15.15;;;3.80;;
61407;SDS011;47274;43.054;25.146;2023-07-20T02:46:29;16.10;;;4.40;;
61407;SDS011;47274;43.054;25.146;2023-07-20T02:48:55;12.27;;;3.80;;
61407;SDS011;47274;43.054;25.146;2023-07-20T02:51:21;18.35;;;4.30;;
61407;SDS011;47274;43.054;25.146;2023-07-20T02:53:53;19.25;;;4.70;;
61407;SDS011;47274;43.054;25.146;2023-07-20T02:56:21;16.17;;;3.90;;
61407;SDS011;47274;43.054;25.146;2023-07-20T02:58:57;17.65;;;4.78;;
61407;SDS011;47274;43.054;25.146;2023-07-20T03:01:31;17.05;;;4.65;;
61407;SDS011;47274;43.054;25.146;2023-07-20T03:04:02;19.38;;;4.10;;
61407;SDS011;47274;43.054;25.146;2023-07-20T03:06:38;16.48;;;4.20;;
61407;SDS011;47274;43.054;25.146;2023-07-20T03:09:14;12.80;;;3.85;;
61407;SDS011;47274;43.054;25.146;2023-07-20T03:11:43;11.32;;;3.75;;
61407;SDS011;47274;43.054;25.146;2023-07-20T03:14:10;15.60;;;4.53;;
61407;SDS011;47274;43.054;25.146;2023-07-20T03:16:37;14.05;;;4.03;;
61407;SDS011;47274;43.054;25.146;2023-07-20T03:19:03;14.68;;;4.40;;
61407;SDS011;47274;43.054;25.146;2023-07-20T03:21:50;14.07;;;4.10;;
61407;SDS011;47274;43.054;25.146;2023-07-20T03:24:18;15.50;;;4.97;;
61407;SDS011;47274;43.054;25.146;2023-07-20T03:26:49;13.70;;;4.17;;
61407;SDS011;47274;43.054;25.146;2023-07-20T03:29:23;8.55;;;3.97;;
61407;SDS011;47274;43.054;25.146;2023-07-20T03:31:54;10.40;;;3.90;;
61407;SDS011;47274;43.054;25.146;2023-07-20T03:34:41;13.80;;;4.13;;
61407;SDS011;47274;43.054;25.146;2023-07-20T03:37:12;9.45;;;3.83;;
61407;SDS011;47274;43.054;25.146;2023-07-20T03:40:11;6.05;;;3.28;;
61407;SDS011;47274;43.054;25.146;2023-07-20T03:42:38;7.70;;;3.60;;
61407;SDS011;47274;43.054;25.146;2023-07-20T03:45:06;13.30;;;4.10;;
61407;SDS011;47274;43.054;25.146;2023-07-20T03:48:03;10.45;;;3.47;;
61407;SDS011;47274;43.054;25.146;2023-07-20T03:50:32;12.05;;;3.90;;
61407;SDS011;47274;43.054;25.146;2023-07-20T03:53:14;6.78;;;3.50;;
61407;SDS011;47274;43.054;25.146;2023-07-20T03:55:53;8.48;;;3.15;;
61407;SDS011;47274;43.054;25.146;2023-07-20T04:02:11;10.73;;;3.70;;
61407;SDS011;47274;43.054;25.146;2023-07-20T04:04:47;13.27;;;3.75;;
61407;SDS011;47274;43.054;25.146;2023-07-20T04:07:26;12.40;;;4.05;;
61407;SDS011;47274;43.054;25.146;2023-07-20T04:09:54;12.18;;;4.53;;
61407;SDS011;47274;43.054;25.146;2023-07-20T04:12:23;7.32;;;3.50;;
61407;SDS011;47274;43.054;25.146;2023-07-20T04:14:51;11.88;;;3.80;;
61407;SDS011;47274;43.054;25.146;2023-07-20T04:17:19;12.15;;;3.90;;
61407;SDS011;47274;43.054;25.146;2023-07-20T04:22:18;9.55;;;3.33;;
61407;SDS011;47274;43.054;25.146;2023-07-20T04:24:52;10.13;;;3.72;;
61407;SDS011;47274;43.054;25.146;2023-07-20T04:27:26;9.15;;;3.20;;
61407;SDS011;47274;43.054;25.146;2023-07-20T04:30:09;7.68;;;3.50;;
61407;SDS011;47274;43.054;25.146;2023-07-20T04:32:46;9.60;;;3.10;;
61407;SDS011;47274;43.054;25.146;2023-07-20T04:38:47;9.05;;;3.35;;
61407;SDS011;47274;43.054;25.146;2023-07-20T04:41:22;9.10;;;3.00;;
61407;SDS011;47274;43.054;25.146;2023-07-20T04:44:06;8.10;;;3.40;;
61407;SDS011;47274;43.054;25.146;2023-07-20T04:46:52;11.75;;;3.15;;
61407;SDS011;47274;43.054;25.146;2023-07-20T04:49:38;10.05;;;3.20;;
61407;SDS011;47274;43.054;25.146;2023-07-20T04:52:07;9.85;;;3.08;;
61407;SDS011;47274;43.054;25.146;2023-07-20T04:54:35;9.85;;;3.20;;
61407;SDS011;47274;43.054;25.146;2023-07-20T04:57:05;8.75;;;3.17;;
61407;SDS011;47274;43.054;25.146;2023-07-20T04:59:44;5.68;;;2.78;;
61407;SDS011;47274;43.054;25.146;2023-07-20T05:02:10;5.38;;;2.63;;
61407;SDS011;47274;43.054;25.146;2023-07-20T05:04:48;9.82;;;2.70;;
61407;SDS011;47274;43.054;25.146;2023-07-20T05:07:14;5.88;;;2.65;;
61407;SDS011;47274;43.054;25.146;2023-07-20T05:09:43;11.60;;;3.45;;
61407;SDS011;47274;43.054;25.146;2023-07-20T05:12:12;8.85;;;3.20;;
61407;SDS011;47274;43.054;25.146;2023-07-20T05:14:39;13.52;;;3.88;;
61407;SDS011;47274;43.054;25.146;2023-07-20T05:17:05;13.75;;;3.92;;
61407;SDS011;47274;43.054;25.146;2023-07-20T05:19:41;16.92;;;4.10;;
61407;SDS011;47274;43.054;25.146;2023-07-20T05:22:07;14.82;;;4.40;;
61407;SDS011;47274;43.054;25.146;2023-07-20T05:24:33;16.27;;;4.25;;
61407;SDS011;47274;43.054;25.146;2023-07-20T05:26:59;12.52;;;4.05;;
61407;SDS011;47274;43.054;25.146;2023-07-20T05:29:25;13.18;;;4.13;;
61407;SDS011;47274;43.054;25.146;2023-07-20T05:31:53;14.40;;;4.10;;
61407;SDS011;47274;43.054;25.146;2023-07-20T05:34:18;13.98;;;4.47;;
61407;SDS011;47274;43.054;25.146;2023-07-20T05:36:46;10.38;;;3.60;;
61407;SDS011;47274;43.054;25.146;2023-07-20T05:39:12;9.45;;;3.55;;
61407;SDS011;47274;43.054;25.146;2023-07-20T05:41:37;11.00;;;3.83;;
61407;SDS011;47274;43.054;25.146;2023-07-20T05:44:03;12.80;;;4.15;;
61407;SDS011;47274;43.054;25.146;2023-07-20T05:46:29;13.93;;;4.10;;
61407;SDS011;47274;43.054;25.146;2023-07-20T05:48:55;14.88;;;4.63;;
61407;SDS011;47274;43.054;25.146;2023-07-20T05:51:20;15.10;;;3.85;;
61407;SDS011;47274;43.054;25.146;2023-07-20T05:53:46;12.68;;;3.70;;
61407;SDS011;47274;43.054;25.146;2023-07-20T05:56:18;11.77;;;3.78;;
61407;SDS011;47274;43.054;25.146;2023-07-20T05:58:44;12.73;;;4.10;;
61407;SDS011;47274;43.054;25.146;2023-07-20T06:01:10;16.30;;;3.70;;
61407;SDS011;47274;43.054;25.146;2023-07-20T06:03:38;11.82;;;3.83;;
61407;SDS011;47274;43.054;25.146;2023-07-20T06:06:04;12.27;;;3.60;;
61407;SDS011;47274;43.054;25.146;2023-07-20T06:08:31;11.23;;;3.70;;
61407;SDS011;47274;43.054;25.146;2023-07-20T06:10:57;9.70;;;3.80;;
61407;SDS011;47274;43.054;25.146;2023-07-20T06:13:22;14.30;;;3.75;;
61407;SDS011;47274;43.054;25.146;2023-07-20T06:15:49;11.23;;;3.40;;
61407;SDS011;47274;43.054;25.146;2023-07-20T06:18:15;9.25;;;3.55;;
61407;SDS011;47274;43.054;25.146;2023-07-20T06:20:41;7.18;;;3.00;;
61407;SDS011;47274;43.054;25.146;2023-07-20T06:23:13;6.45;;;3.00;;
61407;SDS011;47274;43.054;25.146;2023-07-20T06:25:39;7.55;;;3.15;;
61407;SDS011;47274;43.054;25.146;2023-07-20T06:28:15;7.40;;;3.10;;
61407;SDS011;47274;43.054;25.146;2023-07-20T06:30:45;9.50;;;3.03;;
61407;SDS011;47274;43.054;25.146;2023-07-20T06:33:14;10.00;;;3.03;;
61407;SDS011;47274;43.054;25.146;2023-07-20T06:35:43;7.00;;;3.00;;
61407;SDS011;47274;43.054;25.146;2023-07-20T06:38:21;9.88;;;3.08;;
61407;SDS011;47274;43.054;25.146;2023-07-20T06:40:51;8.20;;;2.90;;
61407;SDS011;47274;43.054;25.146;2023-07-20T06:43:19;12.90;;;3.40;;
61407;SDS011;47274;43.054;25.146;2023-07-20T06:45:55;6.63;;;2.75;;
61407;SDS011;47274;43.054;25.146;2023-07-20T06:48:24;8.32;;;3.10;;
61407;SDS011;47274;43.054;25.146;2023-07-20T06:50:50;7.10;;;2.95;;
61407;SDS011;47274;43.054;25.146;2023-07-20T06:53:18;8.65;;;3.53;;
61407;SDS011;47274;43.054;25.146;2023-07-20T06:55:46;10.43;;;3.60;;
61407;SDS011;47274;43.054;25.146;2023-07-20T06:58:23;8.10;;;2.90;;
61407;SDS011;47274;43.054;25.146;2023-07-20T07:00:49;7.68;;;2.80;;
61407;SDS011;47274;43.054;25.146;2023-07-20T07:03:25;10.70;;;3.20;;
61407;SDS011;47274;43.054;25.146;2023-07-20T07:05:54;7.63;;;2.85;;
61407;SDS011;47274;43.054;25.146;2023-07-20T07:08:23;6.25;;;2.63;;
61407;SDS011;47274;43.054;25.146;2023-07-20T07:10:57;8.18;;;2.67;;
61407;SDS011;47274;43.054;25.146;2023-07-20T07:13:43;7.10;;;2.50;;
61407;SDS011;47274;43.054;25.146;2023-07-20T07:16:12;9.43;;;3.17;;
61407;SDS011;47274;43.054;25.146;2023-07-20T07:19:32;8.90;;;3.13;;
61407;SDS011;47274;43.054;25.146;2023-07-20T07:22:05;9.32;;;2.90;;
61407;SDS011;47274;43.054;25.146;2023-07-20T07:24:36;6.78;;;2.75;;
61407;SDS011;47274;43.054;25.146;2023-07-20T07:27:02;12.70;;;3.00;;
61407;SDS011;47274;43.054;25.146;2023-07-20T07:29:31;11.10;;;2.72;;
61407;SDS011;47274;43.054;25.146;2023-07-20T07:31:57;5.60;;;2.80;;
61407;SDS011;47274;43.054;25.146;2023-07-20T07:34:29;4.50;;;2.75;;
61407;SDS011;47274;43.054;25.146;2023-07-20T07:37:06;7.97;;;2.70;;
61407;SDS011;47274;43.054;25.146;2023-07-20T07:39:32;4.82;;;2.50;;
61407;SDS011;47274;43.054;25.146;2023-07-20T07:45:06;5.53;;;2.67;;
61407;SDS011;47274;43.054;25.146;2023-07-20T07:47:39;6.15;;;2.70;;
61407;SDS011;47274;43.054;25.146;2023-07-20T07:50:08;7.18;;;3.08;;
61407;SDS011;47274;43.054;25.146;2023-07-20T07:52:35;7.20;;;2.97;;
61407;SDS011;47274;43.054;25.146;2023-07-20T07:55:11;9.43;;;3.25;;
61407;SDS011;47274;43.054;25.146;2023-07-20T07:57:36;7.22;;;2.72;;
61407;SDS011;47274;43.054;25.146;2023-07-20T08:00:05;8.57;;;2.78;;
61407;SDS011;47274;43.054;25.146;2023-07-20T08:02:47;7.57;;;3.20;;
61407;SDS011;47274;43.054;25.146;2023-07-20T08:05:14;7.18;;;2.70;;
61407;SDS011;47274;43.054;25.146;2023-07-20T08:07:44;6.55;;;2.65;;
61407;SDS011;47274;43.054;25.146;2023-07-20T08:10:10;7.97;;;2.58;;
61407;SDS011;47274;43.054;25.146;2023-07-20T08:12:38;8.93;;;2.97;;
61407;SDS011;47274;43.054;25.146;2023-07-20T08:15:05;6.78;;;2.80;;
61407;SDS011;47274;43.054;25.146;2023-07-20T08:17:35;6.82;;;2.70;;
61407;SDS011;47274;43.054;25.146;2023-07-20T08:20:12;3.97;;;2.50;;
61407;SDS011;47274;43.054;25.146;2023-07-20T08:22:46;5.63;;;2.60;;
61407;SDS011;47274;43.054;25.146;2023-07-20T08:25:27;4.57;;;2.65;;
61407;SDS011;47274;43.054;25.146;2023-07-20T08:28:02;5.35;;;2.78;;
61407;SDS011;47274;43.054;25.146;2023-07-20T08:30:37;9.10;;;3.40;;
61407;SDS011;47274;43.054;25.146;2023-07-20T08:33:08;7.95;;;3.10;;
61407;SDS011;47274;43.054;25.146;2023-07-20T08:35:39;5.93;;;2.72;;
61407;SDS011;47274;43.054;25.146;2023-07-20T08:38:07;4.78;;;2.80;;
61407;SDS011;47274;43.054;25.146;2023-07-20T08:43:37;5.68;;;2.65;;
61407;SDS011;47274;43.054;25.146;2023-07-20T08:46:22;5.38;;;2.78;;
61407;SDS011;47274;43.054;25.146;2023-07-20T08:48:54;6.97;;;3.10;;
61407;SDS011;47274;43.054;25.146;2023-07-20T08:51:22;8.57;;;3.05;;
61407;SDS011;47274;43.054;25.146;2023-07-20T08:53:55;4.43;;;2.45;;
61407;SDS011;47274;43.054;25.146;2023-07-20T08:56:21;9.75;;;2.80;;
61407;SDS011;47274;43.054;25.146;2023-07-20T08:59:04;5.13;;;2.60;;
61407;SDS011;47274;43.054;25.146;2023-07-20T09:01:40;9.93;;;3.20;;
61407;SDS011;47274;43.054;25.146;2023-07-20T09:04:12;5.13;;;2.70;;
61407;SDS011;47274;43.054;25.146;2023-07-20T09:09:07;8.88;;;3.15;;
61407;SDS011;47274;43.054;25.146;2023-07-20T09:11:37;10.80;;;3.80;;
61407;SDS011;47274;43.054;25.146;2023-07-20T09:14:06;10.32;;;3.15;;
61407;SDS011;47274;43.054;25.146;2023-07-20T09:19:48;7.70;;;3.13;;
61407;SDS011;47274;43.054;25.146;2023-07-20T09:22:14;9.38;;;3.28;;
61407;SDS011;47274;43.054;25.146;2023-07-20T09:24:43;8.95;;;3.17;;
61407;SDS011;47274;43.054;25.146;2023-07-20T09:29:56;9.77;;;3.58;;
61407;SDS011;47274;43.054;25.146;2023-07-20T09:32:22;7.10;;;3.70;;
61407;SDS011;47274;43.054;25.146;2023-07-20T09:35:27;7.20;;;3.40;;
61407;SDS011;47274;43.054;25.146;2023-07-20T09:38:04;7.28;;;3.30;;
61407;SDS011;47274;43.054;25.146;2023-07-20T09:40:36;7.05;;;3.55;;
61407;SDS011;47274;43.054;25.146;2023-07-20T09:43:12;8.35;;;3.30;;
61407;SDS011;47274;43.054;25.146;2023-07-20T09:45:44;7.85;;;3.42;;
61407;SDS011;47274;43.054;25.146;2023-07-20T09:48:13;7.95;;;3.60;;
61407;SDS011;47274;43.054;25.146;2023-07-20T09:50:48;9.07;;;3.67;;
61407;SDS011;47274;43.054;25.146;2023-07-20T09:53:18;7.88;;;3.70;;
61407;SDS011;47274;43.054;25.146;2023-07-20T09:55:56;5.22;;;3.30;;
61407;SDS011;47274;43.054;25.146;2023-07-20T09:58:26;10.95;;;3.53;;
61407;SDS011;47274;43.054;25.146;2023-07-20T10:00:57;7.80;;;3.60;;
61407;SDS011;47274;43.054;25.146;2023-07-20T10:03:35;7.63;;;3.65;;
61407;SDS011;47274;43.054;25.146;2023-07-20T10:09:10;5.88;;;3.55;;
61407;SDS011;47274;43.054;25.146;2023-07-20T10:11:40;9.38;;;3.50;;
61407;SDS011;47274;43.054;25.146;2023-07-20T10:14:16;12.30;;;3.75;;
61407;SDS011;47274;43.054;25.146;2023-07-20T10:16:59;8.10;;;3.40;;
61407;SDS011;47274;43.054;25.146;2023-07-20T10:19:47;7.10;;;3.35;;
61407;SDS011;47274;43.054;25.146;2023-07-20T10:22:24;8.23;;;3.30;;
61407;SDS011;47274;43.054;25.146;2023-07-20T10:25:00;6.75;;;3.13;;
61407;SDS011;47274;43.054;25.146;2023-07-20T10:27:38;8.10;;;3.50;;
61407;SDS011;47274;43.054;25.146;2023-07-20T10:30:08;8.27;;;3.20;;
61407;SDS011;47274;43.054;25.146;2023-07-20T10:32:38;7.30;;;3.15;;
61407;SDS011;47274;43.054;25.146;2023-07-20T10:35:16;6.25;;;2.58;;
61407;SDS011;47274;43.054;25.146;2023-07-20T10:38:02;8.23;;;2.90;;
61407;SDS011;47274;43.054;25.146;2023-07-20T10:40:53;6.97;;;2.95;;
61407;SDS011;47274;43.054;25.146;2023-07-20T10:43:20;8.70;;;3.20;;
61407;SDS011;47274;43.054;25.146;2023-07-20T10:45:53;6.68;;;2.90;;
61407;SDS011;47274;43.054;25.146;2023-07-20T10:48:21;4.78;;;2.63;;
61407;SDS011;47274;43.054;25.146;2023-07-20T10:53:45;6.32;;;2.80;;
61407;SDS011;47274;43.054;25.146;2023-07-20T11:01:54;6.78;;;2.90;;
61407;SDS011;47274;43.054;25.146;2023-07-20T11:18:28;6.32;;;2.80;;
61407;SDS011;47274;43.054;25.146;2023-07-20T11:21:07;5.65;;;2.83;;
61407;SDS011;47274;43.054;25.146;2023-07-20T11:23:38;6.95;;;3.03;;
61407;SDS011;47274;43.054;25.146;2023-07-20T11:26:04;4.93;;;3.00;;
61407;SDS011;47274;43.054;25.146;2023-07-20T11:28:33;6.03;;;2.85;;
61407;SDS011;47274;43.054;25.146;2023-07-20T11:31:01;8.73;;;2.88;;
61407;SDS011;47274;43.054;25.146;2023-07-20T11:33:32;5.30;;;2.70;;
61407;SDS011;47274;43.054;25.146;2023-07-20T11:36:01;5.27;;;2.50;;
61407;SDS011;47274;43.054;25.146;2023-07-20T11:38:26;4.07;;;2.70;;
61407;SDS011;47274;43.054;25.146;2023-07-20T11:40:52;4.97;;;2.40;;
61407;SDS011;47274;43.054;25.146;2023-07-20T11:46:05;8.93;;;2.88;;
61407;SDS011;47274;43.054;25.146;2023-07-20T11:48:41;8.48;;;2.80;;
61407;SDS011;47274;43.054;25.146;2023-07-20T11:51:13;7.97;;;2.67;;
61407;SDS011;47274;43.054;25.146;2023-07-20T11:54:00;5.22;;;2.60;;
61407;SDS011;47274;43.054;25.146;2023-07-20T11:56:55;4.47;;;2.45;;
61407;SDS011;47274;43.054;25.146;2023-07-20T11:59:21;8.02;;;2.70;;
61407;SDS011;47274;43.054;25.146;2023-07-20T12:01:58;7.72;;;2.80;;
61407;SDS011;47274;43.054;25.146;2023-07-20T12:04:31;5.75;;;2.50;;
61407;SDS011;47274;43.054;25.146;2023-07-20T12:13:01;4.93;;;2.60;;
61407;SDS011;47274;43.054;25.146;2023-07-20T12:15:44;6.03;;;2.67;;
61407;SDS011;47274;43.054;25.146;2023-07-20T12:23:54;5.70;;;2.80;;
61407;SDS011;47274;43.054;25.146;2023-07-20T12:26:29;7.45;;;2.95;;
61407;SDS011;47274;43.054;25.146;2023-07-20T12:29:01;11.02;;;2.97;;
61407;SDS011;47274;43.054;25.146;2023-07-20T12:34:21;16.67;;;3.00;;
61407;SDS011;47274;43.054;25.146;2023-07-20T12:39:42;8.18;;;2.58;;
61407;SDS011;47274;43.054;25.146;2023-07-20T12:44:58;11.15;;;3.10;;
61407;SDS011;47274;43.054;25.146;2023-07-20T12:50:14;16.13;;;2.90;;
61407;SDS011;47274;43.054;25.146;2023-07-20T12:52:40;6.43;;;2.40;;
61407;SDS011;47274;43.054;25.146;2023-07-20T12:55:09;6.00;;;2.38;;
61407;SDS011;47274;43.054;25.146;2023-07-20T12:57:36;8.02;;;2.70;;
61407;SDS011;47274;43.054;25.146;2023-07-20T13:00:06;5.75;;;2.60;;
61407;SDS011;47274;43.054;25.146;2023-07-20T13:02:40;9.93;;;2.78;;
61407;SDS011;47274;43.054;25.146;2023-07-20T13:05:16;4.68;;;2.25;;
61407;SDS011;47274;43.054;25.146;2023-07-20T13:07:44;15.55;;;3.20;;
61407;SDS011;47274;43.054;25.146;2023-07-20T13:10:18;7.03;;;3.35;;
61407;SDS011;47274;43.054;25.146;2023-07-20T13:13:10;4.05;;;2.30;;
61407;SDS011;47274;43.054;25.146;2023-07-20T13:15:46;5.93;;;2.38;;
61407;SDS011;47274;43.054;25.146;2023-07-20T13:18:13;4.78;;;2.47;;
61407;SDS011;47274;43.054;25.146;2023-07-20T13:20:49;5.75;;;2.25;;
61407;SDS011;47274;43.054;25.146;2023-07-20T13:23:15;4.70;;;2.60;;
61407;SDS011;47274;43.054;25.146;2023-07-20T13:25:41;6.15;;;2.72;;
61407;SDS011;47274;43.054;25.146;2023-07-20T13:28:07;4.05;;;2.50;;
61407;SDS011;47274;43.054;25.146;2023-07-20T13:30:34;4.03;;;2.50;;
61407;SDS011;47274;43.054;25.146;2023-07-20T13:33:02;3.50;;;2.45;;
61407;SDS011;47274;43.054;25.146;2023-07-20T13:35:32;4.53;;;2.55;;
61407;SDS011;47274;43.054;25.146;2023-07-20T13:38:11;6.05;;;2.53;;
61407;SDS011;47274;43.054;25.146;2023-07-20T13:40:38;4.15;;;2.40;;
61407;SDS011;47274;43.054;25.146;2023-07-20T13:43:04;4.40;;;2.50;;
61407;SDS011;47274;43.054;25.146;2023-07-20T13:48:14;4.07;;;2.08;;
61407;SDS011;47274;43.054;25.146;2023-07-20T13:53:31;5.55;;;2.50;;
61407;SDS011;47274;43.054;25.146;2023-07-20T13:56:17;5.72;;;2.90;;
61407;SDS011;47274;43.054;25.146;2023-07-20T13:58:43;6.20;;;3.10;;
61407;SDS011;47274;43.054;25.146;2023-07-20T14:04:10;7.82;;;3.10;;
61407;SDS011;47274;43.054;25.146;2023-07-20T14:12:22;6.80;;;2.95;;
61407;SDS011;47274;43.054;25.146;2023-07-20T14:14:48;8.63;;;3.00;;
61407;SDS011;47274;43.054;25.146;2023-07-20T14:17:14;8.00;;;3.05;;
61407;SDS011;47274;43.054;25.146;2023-07-20T14:19:39;9.35;;;3.53;;
61407;SDS011;47274;43.054;25.146;2023-07-20T14:22:07;6.03;;;2.83;;
61407;SDS011;47274;43.054;25.146;2023-07-20T14:24:32;7.32;;;2.85;;
61407;SDS011;47274;43.054;25.146;2023-07-20T14:30:01;12.15;;;3.92;;
61407;SDS011;47274;43.054;25.146;2023-07-20T14:35:24;8.63;;;3.40;;
61407;SDS011;47274;43.054;25.146;2023-07-20T14:40:41;8.20;;;2.90;;
61407;SDS011;47274;43.054;25.146;2023-07-20T14:43:21;9.15;;;3.10;;
61407;SDS011;47274;43.054;25.146;2023-07-20T14:46:12;5.95;;;2.85;;
61407;SDS011;47274;43.054;25.146;2023-07-20T14:48:51;6.20;;;2.70;;
61407;SDS011;47274;43.054;25.146;2023-07-20T14:51:18;6.15;;;2.75;;
61407;SDS011;47274;43.054;25.146;2023-07-20T14:53:45;6.93;;;2.70;;
61407;SDS011;47274;43.054;25.146;2023-07-20T14:56:16;9.25;;;2.80;;
61407;SDS011;47274;43.054;25.146;2023-07-20T14:58:44;7.93;;;2.80;;
61407;SDS011;47274;43.054;25.146;2023-07-20T15:01:10;4.63;;;2.53;;
61407;SDS011;47274;43.054;25.146;2023-07-20T15:03:36;11.68;;;3.20;;
61407;SDS011;47274;43.054;25.146;2023-07-20T15:06:02;8.88;;;3.47;;
61407;SDS011;47274;43.054;25.146;2023-07-20T15:08:30;5.18;;;2.83;;
61407;SDS011;47274;43.054;25.146;2023-07-20T15:11:30;8.77;;;3.45;;
61407;SDS011;47274;43.054;25.146;2023-07-20T15:13:54;8.90;;;3.72;;
61407;SDS011;47274;43.054;25.146;2023-07-20T15:16:33;7.53;;;2.97;;
61407;SDS011;47274;43.054;25.146;2023-07-20T15:19:00;11.18;;;3.50;;
61407;SDS011;47274;43.054;25.146;2023-07-20T15:21:29;8.48;;;3.33;;
61407;SDS011;47274;43.054;25.146;2023-07-20T15:24:02;7.10;;;3.03;;
61407;SDS011;47274;43.054;25.146;2023-07-20T15:26:28;9.15;;;3.38;;
61407;SDS011;47274;43.054;25.146;2023-07-20T15:29:15;8.20;;;2.85;;
61407;SDS011;47274;43.054;25.146;2023-07-20T15:31:49;6.32;;;2.80;;
61407;SDS011;47274;43.054;25.146;2023-07-20T15:34:24;8.55;;;3.10;;
61407;SDS011;47274;43.054;25.146;2023-07-20T15:36:59;8.85;;;2.85;;
61407;SDS011;47274;43.054;25.146;2023-07-20T15:39:28;9.60;;;3.63;;
61407;SDS011;47274;43.054;25.146;2023-07-20T15:41:56;7.32;;;3.08;;
61407;SDS011;47274;43.054;25.146;2023-07-20T15:44:22;6.47;;;3.13;;
61407;SDS011;47274;43.054;25.146;2023-07-20T15:46:52;8.88;;;3.55;;
61407;SDS011;47274;43.054;25.146;2023-07-20T15:49:26;8.93;;;3.30;;
61407;SDS011;47274;43.054;25.146;2023-07-20T15:51:53;13.57;;;3.40;;
61407;SDS011;47274;43.054;25.146;2023-07-20T15:54:22;13.35;;;3.80;;
61407;SDS011;47274;43.054;25.146;2023-07-20T15:56:55;9.43;;;3.35;;
61407;SDS011;47274;43.054;25.146;2023-07-20T15:59:27;12.95;;;3.58;;
61407;SDS011;47274;43.054;25.146;2023-07-20T16:01:54;13.70;;;4.32;;
61407;SDS011;47274;43.054;25.146;2023-07-20T16:04:24;11.13;;;3.50;;
61407;SDS011;47274;43.054;25.146;2023-07-20T16:06:52;11.93;;;4.43;;
61407;SDS011;47274;43.054;25.146;2023-07-20T16:14:20;15.80;;;5.47;;
61407;SDS011;47274;43.054;25.146;2023-07-20T16:16:48;16.23;;;5.28;;
61407;SDS011;47274;43.054;25.146;2023-07-20T16:19:22;11.95;;;4.82;;
61407;SDS011;47274;43.054;25.146;2023-07-20T16:21:48;16.05;;;6.03;;
61407;SDS011;47274;43.054;25.146;2023-07-20T16:24:25;14.77;;;4.32;;
61407;SDS011;47274;43.054;25.146;2023-07-20T16:26:53;12.13;;;4.40;;
61407;SDS011;47274;43.054;25.146;2023-07-20T16:29:19;18.73;;;6.28;;
61407;SDS011;47274;43.054;25.146;2023-07-20T16:31:55;12.00;;;4.15;;
61407;SDS011;47274;43.054;25.146;2023-07-20T16:34:22;11.63;;;3.97;;
61407;SDS011;47274;43.054;25.146;2023-07-20T16:36:48;10.40;;;3.80;;
61407;SDS011;47274;43.054;25.146;2023-07-20T16:39:14;10.40;;;3.90;;
61407;SDS011;47274;43.054;25.146;2023-07-20T16:41:41;10.20;;;3.50;;
61407;SDS011;47274;43.054;25.146;2023-07-20T16:44:09;10.63;;;3.65;;
61407;SDS011;47274;43.054;25.146;2023-07-20T16:46:35;9.15;;;3.25;;